Time;durP1;ratioP1;P1;durP2;ratioP2;P2;SDS_P1;SDS_P2;PMS_P1;PMS_P2;Temp;Humidity;BMP_temperature;BMP_pressure;BME280_temperature;BME280_humidity;BME280_pressure;Samples;Min_cycle;Max_cycle;Signal;HPM_P1;HPM_P2
2023/02/26 00:04:51;;;;;;;8.35;2.90;;;;;;;-0.51;55.54;99730.63;10346627;28;20076;-79
2023/02/26 00:09:53;;;;;;;8.25;2.92;;;;;;;-0.38;55.36;99729.53;10352678;28;20081;-79
2023/02/26 00:14:55;;;;;;;10.85;3.92;;;;;;;-0.44;56.16;99728.81;10356139;28;20058;-79
2023/02/26 00:19:58;;;;;;;9.02;4.03;;;;;;;-0.68;56.27;99739.53;10350652;28;20064;-79
2023/02/26 00:25:00;;;;;;;7.65;3.53;;;;;;;-0.55;56.23;99736.69;10347560;28;20144;-79
2023/02/26 00:30:07;;;;;;;8.93;3.67;;;;;;;-0.43;55.51;99730.47;10349217;28;20077;-79
2023/02/26 00:35:14;;;;;;;10.13;4.20;;;;;;;-0.44;55.74;99739.94;10338276;28;20060;-79
2023/02/26 00:40:47;;;;;;;11.68;3.30;;;;;;;-0.48;55.71;99735.72;10349624;28;20064;-79
2023/02/26 00:46:23;;;;;;;9.70;2.60;;;;;;;-0.49;55.64;99734.03;10346838;28;20052;-79
2023/02/26 00:51:29;;;;;;;5.68;2.70;;;;;;;-0.53;55.53;99757.22;10306177;28;20054;-79
2023/02/26 00:56:31;;;;;;;9.07;2.88;;;;;;;-0.59;55.87;99773.59;10346123;28;20050;-79
2023/02/26 01:01:33;;;;;;;7.22;2.70;;;;;;;-0.51;55.30;99766.59;10345550;28;20054;-79
2023/02/26 01:06:41;;;;;;;11.20;3.33;;;;;;;-0.64;55.39;99788.25;10340504;28;20053;-79
2023/02/26 01:11:43;;;;;;;10.57;3.03;;;;;;;-0.50;55.27;99773.44;10346306;28;20042;-79
2023/02/26 01:17:14;;;;;;;6.45;2.78;;;;;;;-0.32;54.88;99780.81;10344133;28;20041;-79
2023/02/26 01:22:38;;;;;;;8.00;2.42;;;;;;;-0.29;55.33;99779.88;10354340;28;20054;-79
2023/02/26 01:28:15;;;;;;;9.52;2.33;;;;;;;-0.04;54.68;99788.84;10348178;28;20139;-79
2023/02/26 01:33:28;;;;;;;13.05;2.88;;;;;;;0.06;54.41;99802.34;10344405;28;20050;-79
2023/02/26 01:38:41;;;;;;;5.82;2.30;;;;;;;0.08;54.32;99798.03;10344925;28;20856;-79
2023/02/26 01:44:09;;;;;;;6.13;2.10;;;;;;;-0.02;54.51;99817.94;10346515;28;20053;-79
2023/02/26 01:49:14;;;;;;;6.72;2.22;;;;;;;-0.25;57.09;99825.25;10316575;28;20136;-79
2023/02/26 01:54:24;;;;;;;6.97;2.35;;;;;;;-0.64;59.69;99837.03;10344951;28;20174;-79
2023/02/26 01:59:26;;;;;;;9.23;2.47;;;;;;;-0.97;60.38;99836.69;10342301;28;20046;-79
2023/02/26 02:04:29;;;;;;;8.50;2.33;;;;;;;-0.78;60.50;99833.81;10344672;28;20112;-79
2023/02/26 02:09:31;;;;;;;7.85;2.42;;;;;;;-0.50;60.34;99824.81;10350550;28;20046;-79
2023/02/26 02:14:47;;;;;;;6.88;2.58;;;;;;;-0.43;60.08;99822.97;10350631;28;20050;-79
2023/02/26 02:19:51;;;;;;;6.72;2.20;;;;;;;-0.45;60.24;99823.00;10354186;28;20049;-78
2023/02/26 02:25:30;;;;;;;7.00;2.22;;;;;;;-0.41;61.02;99823.78;10347698;28;20060;-78
2023/02/26 02:30:55;;;;;;;4.70;2.00;;;;;;;-0.52;60.51;99824.00;10367816;28;20412;-79
2023/02/26 02:36:06;;;;;;;6.20;2.05;;;;;;;-0.65;60.25;99837.03;10350047;28;20077;-79
2023/02/26 02:41:23;;;;;;;7.07;1.90;;;;;;;-0.78;60.19;99843.25;10354838;28;20058;-79
2023/02/26 02:46:29;;;;;;;5.53;2.17;;;;;;;-0.63;60.09;99845.56;10350893;28;20092;-79
2023/02/26 02:51:36;;;;;;;6.82;2.20;;;;;;;-0.53;60.10;99850.53;10352336;28;20057;-79
2023/02/26 02:56:45;;;;;;;4.30;1.70;;;;;;;-0.61;59.69;99847.25;10345329;28;20404;-79
2023/02/26 03:01:53;;;;;;;4.85;2.10;;;;;;;-0.51;60.03;99846.22;10354225;28;20076;-79
2023/02/26 03:06:54;;;;;;;6.15;2.85;;;;;;;-0.51;60.01;99851.34;10345272;28;20128;-79
2023/02/26 03:11:56;;;;;;;6.32;3.00;;;;;;;-0.55;60.13;99849.72;10358288;28;20733;-78
2023/02/26 03:17:19;;;;;;;7.32;3.00;;;;;;;-0.59;60.48;99855.78;10357280;28;20054;-79
2023/02/26 03:22:45;;;;;;;6.40;2.40;;;;;;;-0.69;60.70;99861.94;10351360;28;20064;-79
2023/02/26 03:27:52;;;;;;;4.20;1.70;;;;;;;-0.52;60.41;99864.25;10355352;28;20054;-79
2023/02/26 03:33:00;;;;;;;6.32;2.10;;;;;;;-0.44;59.97;99877.81;10348007;28;20068;-79
2023/02/26 03:38:08;;;;;;;6.47;2.13;;;;;;;-0.41;59.96;99872.59;10356840;28;20068;-79
2023/02/26 03:43:31;;;;;;;7.13;2.13;;;;;;;-0.47;60.43;99877.84;10347848;28;20049;-79
2023/02/26 03:48:35;;;;;;;5.32;2.40;;;;;;;-0.55;59.91;99887.38;10354432;28;20052;-79
2023/02/26 03:53:53;;;;;;;6.18;2.38;;;;;;;-0.72;59.71;99899.66;10355979;28;20054;-79
2023/02/26 03:58:54;;;;;;;6.65;2.13;;;;;;;-0.96;59.33;99916.22;10354434;28;20052;-79
2023/02/26 04:04:08;;;;;;;5.38;2.17;;;;;;;-1.19;58.98;99931.94;10351339;28;20058;-79
2023/02/26 04:09:10;;;;;;;5.70;2.30;;;;;;;-1.27;59.48;99935.47;10351564;28;20061;-79
2023/02/26 04:20:38;;;;;;;4.95;2.10;;;;;;;-1.02;59.08;99947.13;10350682;28;20042;-79
2023/02/26 04:25:40;;;;;;;6.20;2.00;;;;;;;-0.94;57.97;99960.69;10348184;28;20065;-79
2023/02/26 04:30:41;;;;;;;4.22;1.80;;;;;;;-1.00;57.48;99959.94;10348706;28;20050;-79
2023/02/26 04:35:43;;;;;;;10.43;2.10;;;;;;;-0.83;57.74;99958.84;10346703;28;20108;-79
2023/02/26 04:40:45;;;;;;;5.00;1.90;;;;;;;-0.80;57.23;99960.53;10349147;28;20052;-79
2023/02/26 04:45:47;;;;;;;5.03;1.92;;;;;;;-0.79;56.67;99968.22;10346623;28;20120;-78
2023/02/26 04:50:49;;;;;;;5.70;1.70;;;;;;;-0.80;56.38;99970.81;10344522;28;20127;-79
2023/02/26 04:55:51;;;;;;;7.35;2.17;;;;;;;-0.90;56.46;99970.06;10344013;28;20058;-79
2023/02/26 05:00:54;;;;;;;6.30;1.90;;;;;;;-1.06;56.36;99972.88;10347268;28;20061;-79
2023/02/26 05:05:56;;;;;;;6.78;2.00;;;;;;;-1.27;56.86;99969.66;10342819;28;20049;-79
2023/02/26 05:10:58;;;;;;;6.38;1.92;;;;;;;-1.47;56.52;99978.47;10348382;28;20053;-79
2023/02/26 05:15:59;;;;;;;5.78;1.98;;;;;;;-1.54;56.74;99987.06;10348275;28;20049;-79
2023/02/26 05:21:01;;;;;;;4.55;1.80;;;;;;;-1.63;57.03;99994.84;10359662;28;20093;-79
2023/02/26 05:26:03;;;;;;;9.18;2.10;;;;;;;-1.76;56.99;100000.97;10346918;28;20058;-79
2023/02/26 05:31:05;;;;;;;6.15;1.90;;;;;;;-1.79;56.88;100006.97;10344851;28;20057;-79
2023/02/26 05:36:08;;;;;;;3.75;1.92;;;;;;;-1.71;57.44;100007.75;10346800;28;20056;-79
2023/02/26 05:41:09;;;;;;;5.45;2.03;;;;;;;-1.75;56.98;100013.75;10349902;28;20054;-80
2023/02/26 05:46:12;;;;;;;4.72;2.05;;;;;;;-1.70;57.02;100021.41;10357445;28;20060;-79
2023/02/26 05:51:14;;;;;;;7.38;2.40;;;;;;;-1.56;57.62;100024.69;10354752;28;20499;-79
2023/02/26 05:56:16;;;;;;;6.05;2.10;;;;;;;-1.56;57.26;100023.00;10354121;28;20690;-79
2023/02/26 06:01:18;;;;;;;6.13;2.00;;;;;;;-1.63;56.94;100033.31;10351831;28;20058;-79
2023/02/26 06:06:20;;;;;;;5.68;2.00;;;;;;;-1.71;56.98;100023.13;10353673;28;20058;-79
2023/02/26 06:11:22;;;;;;;4.85;2.00;;;;;;;-1.61;57.16;100044.41;10350813;28;20599;-79
2023/02/26 06:16:24;;;;;;;4.85;2.13;;;;;;;-1.43;56.87;100044.25;10351675;28;20156;-79
2023/02/26 06:21:26;;;;;;;4.32;1.98;;;;;;;-1.19;56.82;100065.34;10350497;28;20049;-79
2023/02/26 06:26:28;;;;;;;6.70;2.25;;;;;;;-1.07;56.64;100076.38;10354225;28;20123;-79
2023/02/26 06:31:30;;;;;;;4.65;2.50;;;;;;;-0.89;56.92;100082.16;10351475;28;20128;-79
2023/02/26 06:36:32;;;;;;;24.33;15.23;;;;;;;-0.78;55.79;100092.31;10351457;28;20054;-79
2023/02/26 06:41:34;;;;;;;9.05;3.67;;;;;;;-0.77;55.79;100101.69;10351743;28;20905;-79
2023/02/26 06:46:35;;;;;;;6.47;3.42;;;;;;;-0.59;56.27;100117.75;10352989;28;20120;-79
2023/02/26 06:51:37;;;;;;;8.40;2.90;;;;;;;-0.40;55.74;100120.94;10351756;28;20652;-79
2023/02/26 06:56:39;;;;;;;11.57;3.03;;;;;;;-0.32;55.69;100127.69;10354376;28;20753;-79
2023/02/26 07:01:41;;;;;;;7.65;2.67;;;;;;;-0.64;55.17;100139.22;10357087;28;20052;-79
2023/02/26 07:06:42;;;;;;;5.63;2.13;;;;;;;-0.79;55.50;100154.78;10352172;28;20049;-79
2023/02/26 07:12:15;;;;;;;5.85;2.70;;;;;;;-0.82;54.42;100167.69;10353314;28;20058;-80
2023/02/26 07:17:20;;;;;;;5.10;2.47;;;;;;;-0.91;55.34;100168.59;10369034;28;20050;-79
2023/02/26 07:22:21;;;;;;;4.53;2.47;;;;;;;-0.97;55.35;100181.50;10351834;28;20046;-79
2023/02/26 07:27:23;;;;;;;4.53;2.40;;;;;;;-0.91;55.36;100188.28;10353508;28;20411;-79
2023/02/26 07:32:25;;;;;;;7.90;2.50;;;;;;;-0.88;55.06;100201.94;10354110;28;20061;-79
2023/02/26 07:37:28;;;;;;;5.03;2.50;;;;;;;-0.81;55.58;100202.75;10357075;28;20050;-79
2023/02/26 07:42:29;;;;;;;7.30;2.70;;;;;;;-0.57;55.09;100205.06;10354848;28;20056;-79
2023/02/26 07:47:31;;;;;;;6.47;2.42;;;;;;;-0.28;54.35;100210.75;10355646;28;20054;-79
2023/02/26 07:52:33;;;;;;;5.93;2.80;;;;;;;0.04;54.43;100216.34;10354760;28;20148;-79
2023/02/26 07:57:35;;;;;;;5.18;2.58;;;;;;;0.15;53.47;100221.34;10355917;28;20058;-79
2023/02/26 08:02:36;;;;;;;6.40;2.60;;;;;;;0.17;52.94;100224.75;10354319;28;20061;-79
2023/02/26 08:07:38;;;;;;;7.60;2.20;;;;;;;0.13;52.52;100230.81;10355664;28;20053;-79
2023/02/26 08:12:40;;;;;;;7.10;2.75;;;;;;;0.40;52.55;100227.88;10354551;28;20057;-80
2023/02/26 08:17:41;;;;;;;6.25;2.47;;;;;;;0.46;50.90;100220.06;10355706;28;20060;-79
2023/02/26 08:22:43;;;;;;;6.45;2.30;;;;;;;0.91;51.67;100216.75;10351306;28;20129;-80
2023/02/26 08:27:45;;;;;;;5.20;2.00;;;;;;;0.66;49.94;100225.75;10353400;28;20132;-79
2023/02/26 08:32:48;;;;;;;7.78;2.30;;;;;;;1.06;49.17;100229.41;10348538;28;20463;-79
2023/02/26 08:37:50;;;;;;;4.13;2.03;;;;;;;1.15;49.57;100228.41;10351491;28;20387;-79
2023/02/26 08:42:53;;;;;;;5.60;1.90;;;;;;;1.30;48.88;100238.44;10347606;28;20093;-79
2023/02/26 08:47:55;;;;;;;5.68;2.00;;;;;;;1.58;48.02;100241.38;10351192;28;20053;-79
2023/02/26 08:52:58;;;;;;;4.35;1.75;;;;;;;2.05;47.30;100249.06;10347422;28;20169;-79
2023/02/26 08:57:59;;;;;;;5.60;1.60;;;;;;;2.15;44.39;100243.66;10351673;28;20053;-78
2023/02/26 09:03:01;;;;;;;3.83;1.67;;;;;;;2.65;45.44;100257.22;10347833;28;20869;-79
2023/02/26 09:08:03;;;;;;;4.32;1.50;;;;;;;2.73;44.78;100240.66;10350005;28;20553;-79
2023/02/26 09:13:05;;;;;;;4.03;1.50;;;;;;;2.75;42.69;100262.13;10348688;28;20108;-80
2023/02/26 09:18:14;;;;;;;3.00;1.38;;;;;;;3.02;42.05;100258.06;10349835;28;20157;-80
2023/02/26 09:23:15;;;;;;;3.10;1.30;;;;;;;3.64;41.84;100269.44;10346231;28;20057;-80
2023/02/26 09:28:17;;;;;;;3.53;1.48;;;;;;;3.72;41.19;100277.84;10348624;28;20472;-80
2023/02/26 09:33:21;;;;;;;3.70;1.30;;;;;;;3.15;40.12;100289.63;10338038;28;20116;-79
2023/02/26 09:38:24;;;;;;;3.83;1.13;;;;;;;2.69;41.14;100289.81;10341786;28;20103;-80
2023/02/26 09:43:57;;;;;;;3.13;1.30;;;;;;;2.46;41.53;100298.06;10346161;28;20054;-79
2023/02/26 09:49:15;;;;;;;3.13;1.23;;;;;;;2.37;40.83;100302.56;10347857;28;21019;-79
2023/02/26 09:54:28;;;;;;;4.32;1.45;;;;;;;2.15;40.38;100318.47;10358042;28;20116;-80
2023/02/26 09:59:33;;;;;;;3.17;1.27;;;;;;;1.85;41.38;100323.34;10347646;28;20535;-80
2023/02/26 10:04:48;;;;;;;2.58;1.25;;;;;;;2.07;42.25;100325.50;10323342;28;20050;-79
2023/02/26 10:10:07;;;;;;;2.83;1.60;;;;;;;2.37;42.85;100321.50;10342243;28;20125;-80
2023/02/26 10:15:17;;;;;;;2.95;1.33;;;;;;;2.20;40.75;100336.47;10340278;28;20410;-80
2023/02/26 10:20:28;;;;;;;4.15;1.42;;;;;;;2.39;41.74;100342.09;10339580;28;20068;-80
2023/02/26 10:25:48;;;;;;;4.20;1.65;;;;;;;2.33;39.64;100366.31;10350014;28;20046;-80
2023/02/26 10:31:02;;;;;;;3.00;1.40;;;;;;;2.42;41.77;100350.63;10361264;28;20466;-79
2023/02/26 10:36:26;;;;;;;5.32;1.35;;;;;;;2.86;40.58;100360.06;10350085;28;20063;-79
2023/02/26 10:41:34;;;;;;;4.38;1.27;;;;;;;2.53;40.60;100353.00;10349295;28;20072;-80
2023/02/26 10:47:01;;;;;;;3.92;1.20;;;;;;;2.79;39.91;100359.31;10348912;28;20056;-80
2023/02/26 10:52:15;;;;;;;4.63;1.42;;;;;;;2.55;39.63;100359.84;10349955;28;20050;-80
2023/02/26 10:57:27;;;;;;;2.60;1.20;;;;;;;2.76;40.01;100364.56;10348747;28;20054;-80
2023/02/26 11:02:43;;;;;;;2.45;1.30;;;;;;;2.68;39.73;100374.19;10347446;28;20135;-81
2023/02/26 11:07:51;;;;;;;3.88;1.40;;;;;;;3.07;40.58;100369.91;10350188;28;20900;-80
2023/02/26 11:12:53;;;;;;;2.78;1.30;;;;;;;3.32;40.42;100375.34;10347179;28;20061;-80
2023/02/26 11:17:58;;;;;;;2.78;1.40;;;;;;;3.25;39.43;100374.69;10343260;28;20049;-80
2023/02/26 11:23:05;;;;;;;3.20;1.23;;;;;;;3.37;40.26;100368.34;10346552;28;20050;-80
2023/02/26 11:28:23;;;;;;;3.80;1.35;;;;;;;3.03;40.01;100374.28;10348730;28;20073;-81
2023/02/26 11:33:48;;;;;;;4.03;1.45;;;;;;;3.10;39.81;100381.91;10348834;28;20046;-80
2023/02/26 11:39:07;;;;;;;3.72;1.40;;;;;;;2.88;39.70;100371.19;10348112;28;20050;-81
2023/02/26 11:44:21;;;;;;;3.13;1.30;;;;;;;2.84;39.52;100398.84;10363309;28;20137;-81
2023/02/26 11:49:27;;;;;;;3.00;1.30;;;;;;;2.70;40.15;100387.09;10348022;28;20134;-80
2023/02/26 11:54:38;;;;;;;2.58;1.30;;;;;;;2.46;40.96;100383.25;10347593;28;20108;-81
2023/02/26 11:59:40;;;;;;;4.03;1.58;;;;;;;2.79;41.58;100392.03;10349277;28;20050;-81
2023/02/26 12:04:48;;;;;;;2.95;1.38;;;;;;;3.00;40.65;100389.00;10344424;28;20061;-81
2023/02/26 12:09:52;;;;;;;3.55;1.42;;;;;;;3.31;40.85;100394.34;10355102;28;20050;-81
2023/02/26 12:15:15;;;;;;;2.67;1.25;;;;;;;3.11;40.25;100392.19;10344097;28;20056;-81
2023/02/26 12:20:30;;;;;;;2.67;1.30;;;;;;;3.47;38.39;100408.63;10341425;28;20054;-81
2023/02/26 12:26:14;;;;;;;5.47;1.60;;;;;;;3.23;38.99;100406.59;10346491;28;20049;-79
2023/02/26 12:31:35;;;;;;;3.35;1.33;;;;;;;3.16;39.62;100395.53;10337567;28;20136;-81
2023/02/26 12:37:15;;;;;;;5.60;1.50;;;;;;;3.03;39.87;100389.78;10344210;28;20053;-81
2023/02/26 12:42:39;;;;;;;4.25;1.48;;;;;;;2.77;39.10;100391.22;10336487;28;20045;-81
2023/02/26 12:48:24;;;;;;;3.03;1.30;;;;;;;2.59;39.21;100387.28;10346860;28;20049;-81
2023/02/26 12:54:04;;;;;;;3.10;1.40;;;;;;;2.89;38.59;100391.81;10347596;28;20050;-81
2023/02/26 12:59:35;;;;;;;3.70;1.33;;;;;;;2.85;37.75;100397.06;10337898;28;20050;-81
2023/02/26 13:04:54;;;;;;;1.70;1.20;;;;;;;3.10;38.89;100400.00;10345106;28;20049;-81
2023/02/26 13:10:33;;;;;;;3.97;1.48;;;;;;;3.46;37.59;100404.31;10339570;28;20854;-80
2023/02/26 13:16:09;;;;;;;2.45;1.33;;;;;;;3.22;39.03;100420.41;10338710;28;20104;-80
2023/02/26 13:21:37;;;;;;;2.70;1.10;;;;;;;3.11;38.16;100414.63;10337953;28;20050;-80
2023/02/26 13:26:41;;;;;;;4.45;1.42;;;;;;;2.86;39.80;100425.47;10341553;28;20050;-80
2023/02/26 13:32:12;;;;;;;3.35;1.30;;;;;;;2.87;39.77;100434.91;10342861;28;20046;-80
2023/02/26 13:37:36;;;;;;;;;;;;;;;2.37;40.98;100424.75;10340999;28;20050;-80
2023/02/26 13:43:22;;;;;;;4.50;1.40;;;;;;;2.74;40.48;100422.28;10344399;28;19929;-80
2023/02/26 13:48:45;;;;;;;3.50;1.48;;;;;;;2.84;40.37;100419.50;10337376;28;20525;-80
2023/02/26 13:53:52;;;;;;;3.95;1.55;;;;;;;2.97;40.22;100431.25;10339740;28;20058;-80
2023/02/26 13:59:04;;;;;;;3.70;1.73;;;;;;;3.04;40.61;100427.69;10341723;28;20056;-80
2023/02/26 14:04:06;;;;;;;3.30;1.48;;;;;;;3.12;41.38;100424.94;10348257;28;20054;-81
2023/02/26 14:09:25;;;;;;;4.25;1.40;;;;;;;3.11;40.47;100433.53;10341972;28;20453;-80
2023/02/26 14:14:44;;;;;;;2.75;1.40;;;;;;;2.93;40.78;100434.78;10347886;28;20069;-81
2023/02/26 14:19:51;;;;;;;3.90;1.70;;;;;;;2.99;41.55;100439.84;10347644;28;20140;-81
2023/02/26 14:25:15;;;;;;;3.65;1.40;;;;;;;2.86;40.20;100443.56;10349114;28;20109;-81
2023/02/26 14:30:32;;;;;;;3.42;1.38;;;;;;;2.73;40.95;100436.94;10351120;28;20889;-81
2023/02/26 14:35:42;;;;;;;2.70;1.20;;;;;;;2.75;39.69;100432.59;10347184;28;20133;-81
2023/02/26 14:41:05;;;;;;;4.05;1.52;;;;;;;2.88;40.22;100434.06;10342634;28;20056;-81
2023/02/26 14:46:10;;;;;;;2.50;1.27;;;;;;;3.26;40.43;100435.81;10351591;28;20050;-81
2023/02/26 14:51:20;;;;;;;2.92;1.38;;;;;;;2.82;40.00;100449.69;10348067;28;20045;-80
2023/02/26 14:56:31;;;;;;;4.07;1.30;;;;;;;2.53;40.48;100451.97;10345559;28;20065;-80
2023/02/26 15:02:19;;;;;;;3.03;1.20;;;;;;;2.33;39.22;100446.31;10352124;28;20046;-80
2023/02/26 15:07:29;;;;;;;1.95;1.13;;;;;;;2.72;39.96;100462.78;10338051;28;20042;-80
2023/02/26 15:12:43;;;;;;;3.05;1.17;;;;;;;2.76;38.90;100460.13;10345070;28;20138;-80
2023/02/26 15:18:12;;;;;;;4.20;1.40;;;;;;;2.52;39.29;100452.84;10349121;28;20092;-80
2023/02/26 15:23:37;;;;;;;3.85;1.40;;;;;;;2.46;40.05;100455.53;10352037;28;20065;-80
2023/02/26 15:28:41;;;;;;;5.55;1.67;;;;;;;2.44;40.81;100451.28;10347104;28;20045;-80
2023/02/26 15:33:44;;;;;;;3.60;1.52;;;;;;;2.43;40.92;100447.84;10351580;28;20056;-80
2023/02/26 15:38:52;;;;;;;3.35;1.35;;;;;;;2.15;40.32;100472.47;10349263;28;20064;-80
2023/02/26 15:44:02;;;;;;;3.35;1.30;;;;;;;2.24;41.20;100469.69;10352726;28;20487;-80
2023/02/26 15:49:09;;;;;;;4.05;1.63;;;;;;;2.34;40.78;100473.81;10351200;28;20131;-80
2023/02/26 15:54:16;;;;;;;4.20;1.58;;;;;;;2.63;40.44;100478.44;10349224;28;20115;-80
2023/02/26 15:59:25;;;;;;;3.67;1.30;;;;;;;2.86;40.05;100476.28;10348394;28;20050;-80
2023/02/26 16:04:27;;;;;;;2.55;1.33;;;;;;;2.78;40.72;100475.59;10349530;28;20050;-80
2023/02/26 16:09:44;;;;;;;3.25;1.50;;;;;;;2.63;39.98;100468.97;10349503;28;20046;-80
2023/02/26 16:14:55;;;;;;;4.88;1.50;;;;;;;2.32;40.25;100474.75;10344213;28;20060;-81
2023/02/26 16:20:02;;;;;;;4.88;1.70;;;;;;;2.19;41.05;100482.66;10343152;28;21163;-81
2023/02/26 16:25:17;;;;;;;4.05;1.70;;;;;;;2.27;42.14;100486.88;10335360;28;20058;-80
2023/02/26 16:30:25;;;;;;;3.28;1.52;;;;;;;2.05;41.64;100482.06;10345515;28;20395;-81
2023/02/26 16:35:33;;;;;;;3.63;1.40;;;;;;;2.16;41.40;100505.97;10342403;28;20077;-80
2023/02/26 16:40:39;;;;;;;4.20;1.50;;;;;;;1.93;40.47;100504.66;10345121;28;20037;-81
2023/02/26 16:45:51;;;;;;;3.58;1.80;;;;;;;1.74;40.71;100516.09;10342296;28;20533;-81
2023/02/26 16:51:18;;;;;;;5.38;1.58;;;;;;;1.57;40.76;100529.22;10344407;28;20069;-81
2023/02/26 16:56:37;;;;;;;2.72;1.30;;;;;;;1.34;40.12;100532.09;10334826;28;20058;-82
2023/02/26 17:01:47;;;;;;;2.60;1.20;;;;;;;1.18;40.21;100548.63;10343197;28;20513;-81
2023/02/26 17:06:51;;;;;;;4.80;1.45;;;;;;;1.20;40.46;100549.47;10358845;28;20515;-82
2023/02/26 17:12:19;;;;;;;1.52;1.20;;;;;;;1.01;40.13;100553.13;10346349;28;20088;-82
2023/02/26 17:17:29;;;;;;;4.22;1.20;;;;;;;1.10;40.62;100575.34;10340839;28;20105;-82
2023/02/26 17:22:42;;;;;;;3.08;1.50;;;;;;;1.03;40.77;100578.88;10344747;28;20056;-81
2023/02/26 17:27:45;;;;;;;2.92;1.50;;;;;;;0.97;41.56;100584.91;10338182;28;20896;-82
2023/02/26 17:32:47;;;;;;;3.80;1.63;;;;;;;0.86;41.75;100603.94;10351679;28;20071;-81
2023/02/26 17:37:50;;;;;;;3.78;1.65;;;;;;;0.80;41.75;100604.00;10343477;28;20164;-82
2023/02/26 17:42:52;;;;;;;4.45;1.80;;;;;;;0.71;41.71;100615.22;10350708;28;20056;-82
2023/02/26 17:47:57;;;;;;;4.43;1.65;;;;;;;0.69;42.27;100629.81;10347938;28;20060;-81
2023/02/26 17:52:58;;;;;;;2.95;1.63;;;;;;;0.61;42.41;100629.03;10348149;28;20758;-82
2023/02/26 17:58:00;;;;;;;3.88;1.90;;;;;;;0.59;42.12;100638.50;10350449;28;20050;-81
2023/02/26 18:03:03;;;;;;;5.00;1.77;;;;;;;0.57;41.73;100645.38;10348028;28;20054;-81
2023/02/26 18:08:23;;;;;;;5.00;1.95;;;;;;;0.57;41.21;100647.94;10337466;28;20601;-81
2023/02/26 18:13:28;;;;;;;3.72;1.65;;;;;;;0.61;41.53;100654.78;10346705;28;20123;-81
2023/02/26 18:18:32;;;;;;;3.75;1.95;;;;;;;0.58;41.42;100649.66;10350463;28;20045;-81
2023/02/26 18:23:34;;;;;;;3.72;1.60;;;;;;;0.47;41.38;100646.31;10346903;28;20046;-81
2023/02/26 18:28:36;;;;;;;3.47;1.67;;;;;;;0.43;41.59;100644.63;10349656;28;20125;-81
2023/02/26 18:33:40;;;;;;;3.67;1.60;;;;;;;0.37;41.66;100653.25;10353758;28;20046;-80
2023/02/26 18:38:41;;;;;;;4.18;1.90;;;;;;;0.24;41.87;100650.78;10351419;28;20073;-80
2023/02/26 18:43:43;;;;;;;4.22;1.75;;;;;;;0.20;41.93;100656.81;10353232;28;20137;-80
2023/02/26 18:48:46;;;;;;;6.45;1.73;;;;;;;0.21;41.91;100658.50;10349793;28;20049;-80
2023/02/26 18:53:47;;;;;;;4.68;1.88;;;;;;;0.14;42.17;100661.97;10352640;28;20076;-81
2023/02/26 18:59:42;;;;;;;5.22;1.70;;;;;;;0.09;41.72;100667.16;10352010;28;20037;-80
2023/02/26 19:04:44;;;;;;;3.60;1.60;;;;;;;0.08;42.50;100664.56;10349646;28;20610;-80
2023/02/26 19:09:47;;;;;;;4.88;1.70;;;;;;;0.14;42.24;100678.25;10352109;28;20528;-80
2023/02/26 19:14:49;;;;;;;6.80;2.00;;;;;;;0.10;42.41;100686.00;10346599;28;20524;-79
2023/02/26 19:19:51;;;;;;;3.63;1.73;;;;;;;0.17;42.48;100682.53;10352148;28;21587;-79
2023/02/26 19:24:53;;;;;;;4.28;1.80;;;;;;;0.11;42.81;100686.00;10354402;28;20064;-79
2023/02/26 19:29:55;;;;;;;3.30;1.70;;;;;;;0.07;42.79;100688.59;10352922;28;20065;-79
2023/02/26 19:34:57;;;;;;;3.92;2.10;;;;;;;-0.01;42.99;100693.78;10353590;28;20054;-79
2023/02/26 19:39:58;;;;;;;5.78;2.10;;;;;;;-0.14;43.35;100688.69;10349112;28;20050;-79
2023/02/26 19:45:00;;;;;;;6.22;2.20;;;;;;;-0.16;43.63;100703.25;10352673;28;20514;-80
2023/02/26 19:50:02;;;;;;;7.03;2.45;;;;;;;-0.21;43.41;100699.88;10353634;28;20077;-80
2023/02/26 19:55:05;;;;;;;6.55;2.00;;;;;;;-0.20;43.81;100709.28;10351791;28;20392;-79
2023/02/26 20:00:11;;;;;;;5.05;2.38;;;;;;;-0.26;43.72;100715.31;10348587;28;20710;-79
2023/02/26 20:05:15;;;;;;;6.38;2.40;;;;;;;-0.31;44.03;100725.59;10343831;28;20116;-80
2023/02/26 20:10:17;;;;;;;6.53;2.28;;;;;;;-0.39;44.06;100731.63;10343967;28;20140;-79
2023/02/26 20:15:19;;;;;;;5.57;2.38;;;;;;;-0.38;44.65;100739.34;10346119;28;20061;-80
2023/02/26 20:20:22;;;;;;;6.32;2.30;;;;;;;-0.44;44.60;100741.06;10345554;28;20058;-80
2023/02/26 20:25:28;;;;;;;6.80;2.40;;;;;;;-0.50;44.70;100751.34;10339564;28;20669;-79
2023/02/26 20:30:34;;;;;;;7.68;2.08;;;;;;;-0.55;44.68;100756.50;10347175;28;20042;-79
2023/02/26 20:35:36;;;;;;;4.90;2.60;;;;;;;-0.58;44.82;100761.66;10363575;28;20086;-80
2023/02/26 20:40:38;;;;;;;5.93;2.70;;;;;;;-0.72;45.11;100767.66;10350118;28;20050;-79
2023/02/26 20:45:40;;;;;;;5.95;2.53;;;;;;;-0.71;45.13;100772.78;10349369;28;20448;-79
2023/02/26 20:50:42;;;;;;;5.25;2.60;;;;;;;-0.72;45.21;100770.22;10347962;28;20048;-79
2023/02/26 20:55:44;;;;;;;5.05;2.25;;;;;;;-0.75;45.39;100776.22;10343545;28;20930;-79
2023/02/26 21:00:46;;;;;;;4.80;2.25;;;;;;;-0.81;45.69;100777.94;10348840;28;20420;-79
2023/02/26 21:05:48;;;;;;;5.95;2.28;;;;;;;-0.82;45.96;100781.38;10346854;28;20052;-79
2023/02/26 21:10:50;;;;;;;5.55;2.05;;;;;;;-0.90;46.38;100786.47;10348601;28;20495;-80
2023/02/26 21:15:52;;;;;;;4.13;1.92;;;;;;;-0.92;47.07;100795.06;10348689;28;20058;-80
2023/02/26 21:20:54;;;;;;;3.75;1.85;;;;;;;-0.98;47.43;100785.63;10347673;28;20046;-79
2023/02/26 21:25:56;;;;;;;4.85;2.10;;;;;;;-1.07;47.41;100793.34;10345192;28;20054;-80
2023/02/26 21:30:58;;;;;;;6.13;2.20;;;;;;;-1.12;47.69;100794.19;10339692;28;20515;-80
2023/02/26 21:36:01;;;;;;;6.38;2.42;;;;;;;-1.15;48.21;100797.59;10347338;28;20061;-80
2023/02/26 21:41:03;;;;;;;6.72;2.50;;;;;;;-1.20;48.48;100801.84;10348724;28;20042;-79
2023/02/26 21:46:06;;;;;;;6.72;3.88;;;;;;;-1.25;49.09;100804.41;10350427;28;20053;-79
2023/02/26 21:51:09;;;;;;;7.47;3.28;;;;;;;-1.27;49.59;100795.03;10350386;28;20046;-80
2023/02/26 21:56:11;;;;;;;6.95;3.80;;;;;;;-1.31;49.90;100798.44;10350111;28;20422;-80
2023/02/26 22:01:13;;;;;;;6.20;3.20;;;;;;;-1.39;49.88;100795.00;10346866;28;21684;-79
2023/02/26 22:06:15;;;;;;;7.00;3.20;;;;;;;-1.43;49.95;100798.41;10344142;28;20496;-79
2023/02/26 22:11:16;;;;;;;6.65;3.05;;;;;;;-1.47;49.84;100801.81;10349250;28;20072;-79
2023/02/26 22:16:18;;;;;;;7.03;2.97;;;;;;;-1.48;50.11;100800.09;10342184;28;20050;-80
2023/02/26 22:21:22;;;;;;;10.23;4.65;;;;;;;-1.53;50.33;100800.06;10348140;28;20050;-80
2023/02/26 22:26:24;;;;;;;7.53;4.05;;;;;;;-1.56;50.57;100804.34;10352735;28;20533;-80
2023/02/26 22:31:30;;;;;;;8.52;3.22;;;;;;;-1.66;50.64;100803.47;10351234;28;20041;-80
2023/02/26 22:36:35;;;;;;;8.93;3.28;;;;;;;-1.65;50.69;100799.19;10351448;28;20049;-80
2023/02/26 22:41:36;;;;;;;8.98;3.00;;;;;;;-1.67;50.67;100801.75;10351043;28;20052;-80
2023/02/26 22:46:38;;;;;;;8.88;4.20;;;;;;;-1.78;50.92;100807.69;10346916;28;20061;-80
2023/02/26 22:51:40;;;;;;;6.35;2.75;;;;;;;-1.74;51.02;100809.41;10352210;28;20053;-79
2023/02/26 22:56:41;;;;;;;7.28;2.90;;;;;;;-1.66;50.50;100807.72;10351627;28;20066;-80
2023/02/26 23:01:43;;;;;;;7.78;2.50;;;;;;;-1.63;50.08;100807.72;10351189;28;20046;-80
2023/02/26 23:06:45;;;;;;;8.77;2.75;;;;;;;-1.65;49.97;100814.56;10350943;28;20076;-80
2023/02/26 23:11:47;;;;;;;6.75;2.50;;;;;;;-1.68;49.93;100810.31;10349062;28;20047;-80
2023/02/26 23:16:48;;;;;;;5.20;2.70;;;;;;;-1.72;50.43;100820.53;10348820;28;20056;-80
2023/02/26 23:21:50;;;;;;;7.68;2.92;;;;;;;-1.77;50.64;100814.50;10352521;28;20068;-80
2023/02/26 23:26:52;;;;;;;5.60;2.85;;;;;;;-1.82;50.78;100817.09;10349682;28;20093;-80
2023/02/26 23:31:54;;;;;;;5.32;2.75;;;;;;;-1.89;51.03;100809.34;10349674;28;20441;-80
2023/02/26 23:36:56;;;;;;;5.90;2.58;;;;;;;-1.98;51.21;100809.31;10349728;28;20053;-80
2023/02/26 23:41:58;;;;;;;6.60;3.00;;;;;;;-2.06;51.68;100807.56;10352146;28;20073;-80
2023/02/26 23:46:59;;;;;;;6.05;2.92;;;;;;;-2.07;51.80;100808.44;10349792;28;20053;-80
2023/02/26 23:52:01;;;;;;;6.55;2.72;;;;;;;-2.09;51.89;100811.81;10343295;28;20050;-80
2023/02/26 23:57:03;;;;;;;6.32;2.80;;;;;;;-2.12;51.81;100822.03;10358918;28;20141;-80
